Cold Bay, AK

10:58 AM AKDT on August 30, 2016 (GMT -0800)
Cold Bay | | Change Station

Elev 102 ft 55.22 °N, 162.73 °W | Updated 5 minutes ago

Fog
Fog
54 °F
Feels Like 54 °F
N
4
Wind Variable Wind from ENE

Today
High -- | Low -- °F
--% Chance of Precip.
Yesterday
High -- | Low -- °F
Precip. -- in
Pressure 30.05 in
Visibility 0.2 miles
Clouds
Dew Point 54 °F
Humidity 100%
Rainfall 0.00 in
Snow Depth Not available.
7:54 AM 9:46 PM
Waning Crescent, 3% visible
METAR PACD 301853Z 07003KT 1/4SM FG VV003 12/12 A3004 RMK AO2 SLP174 T01220122
Pressure 30.05 in
Visibility 0.2 miles
Clouds
Dew Point 54 °F
Humidity 100%
Rainfall 0.00 in
Snow Depth Not available.
7:54 AM 9:46 PM
Waning Crescent, 3% visible
METAR PACD 301853Z 07003KT 1/4SM FG VV003 12/12 A3004 RMK AO2 SLP174 T01220122

10-Day Weather Forecast

Almanac

Astronomy

Aug. 30, 2016 Rise Set
Actual Time
Civil Twilight
Nautical Twilight
Astronomical Twilight
Moon
Length of Visible Light
Length of Day
Tomorrow will be .
, % of the Moon is Illuminated

Today's Extremes

State Highs State Lows

Community

WunderPhotos

Upload Photos

1,935,875 photos uploaded!

WunderBlog® & News

Nearby

Air Quality

  Air Quality AQ Index Pollutant
Not available.

Snow Depth

Station Depth Elevation

Earthquake Activity

City Distance Mag. Time & Date
Minimum magnitude displayed is 2.5.

Coastal Water Temperatures

Place Temperature

Stations

Nearby Weather Stations

Station Location Temp. Windchill Dew Point Humidity Wind Precip. Elev Updated Type
                   

Watches & Warnings

There are currently no watches in effect.